sensor_id;sensor_type;location;lat;lon;timestamp;pressure;altitude;pressure_sealevel;temperature;humidity
68941;BME280;55982;51.476;7.552;2022-07-29T00:00:52;99802.81;;;18.01;60.75
68941;BME280;55982;51.476;7.552;2022-07-29T00:03:18;99794.66;;;18.04;60.30
68941;BME280;55982;51.476;7.552;2022-07-29T00:05:43;99797.91;;;18.09;59.43
68941;BME280;55982;51.476;7.552;2022-07-29T00:08:09;99791.25;;;18.02;59.58
68941;BME280;55982;51.476;7.552;2022-07-29T00:10:34;99796.56;;;18.02;59.66
68941;BME280;55982;51.476;7.552;2022-07-29T00:13:00;99796.78;;;17.99;60.07
68941;BME280;55982;51.476;7.552;2022-07-29T00:15:26;99789.19;;;18.07;59.54
68941;BME280;55982;51.476;7.552;2022-07-29T00:17:51;99796.56;;;18.02;59.37
68941;BME280;55982;51.476;7.552;2022-07-29T00:20:17;99791.38;;;18.01;59.93
68941;BME280;55982;51.476;7.552;2022-07-29T00:22:42;99788.81;;;17.99;59.16
68941;BME280;55982;51.476;7.552;2022-07-29T00:25:08;99788.94;;;17.98;59.87
68941;BME280;55982;51.476;7.552;2022-07-29T00:27:35;99775.78;;;17.96;60.01
68941;BME280;55982;51.476;7.552;2022-07-29T00:30:01;99770.47;;;17.96;60.31
68941;BME280;55982;51.476;7.552;2022-07-29T00:32:26;99775.50;;;17.87;60.49
68941;BME280;55982;51.476;7.552;2022-07-29T00:34:52;99775.72;;;17.84;61.03
68941;BME280;55982;51.476;7.552;2022-07-29T00:37:36;99763.84;;;17.77;60.77
68941;BME280;55982;51.476;7.552;2022-07-29T00:40:02;99765.03;;;17.71;62.06
68941;BME280;55982;51.476;7.552;2022-07-29T00:42:27;99751.09;;;17.69;60.77
68941;BME280;55982;51.476;7.552;2022-07-29T00:44:53;99751.25;;;17.66;61.15
68941;BME280;55982;51.476;7.552;2022-07-29T00:47:18;99743.59;;;17.62;61.19
68941;BME280;55982;51.476;7.552;2022-07-29T00:49:44;99747.50;;;17.56;61.09
68941;BME280;55982;51.476;7.552;2022-07-29T00:52:10;99738.50;;;17.59;61.32
68941;BME280;55982;51.476;7.552;2022-07-29T00:54:37;99745.03;;;17.53;62.17
68941;BME280;55982;51.476;7.552;2022-07-29T00:57:08;99738.59;;;17.43;62.16
68941;BME280;55982;51.476;7.552;2022-07-29T00:59:34;99740.09;;;17.33;63.39
68941;BME280;55982;51.476;7.552;2022-07-29T01:01:59;99742.47;;;17.23;63.73
68941;BME280;55982;51.476;7.552;2022-07-29T01:04:25;99740.88;;;17.21;63.54
68941;BME280;55982;51.476;7.552;2022-07-29T01:06:51;99738.59;;;17.15;63.39
68941;BME280;55982;51.476;7.552;2022-07-29T01:09:18;99732.81;;;17.08;65.29
68941;BME280;55982;51.476;7.552;2022-07-29T01:11:45;99725.00;;;17.07;64.32
68941;BME280;55982;51.476;7.552;2022-07-29T01:14:13;99730.50;;;17.04;64.15
68941;BME280;55982;51.476;7.552;2022-07-29T01:17:05;99726.78;;;16.92;64.60
68941;BME280;55982;51.476;7.552;2022-07-29T01:19:56;99715.00;;;16.98;63.98
68941;BME280;55982;51.476;7.552;2022-07-29T01:22:27;99713.94;;;17.00;64.06
68941;BME280;55982;51.476;7.552;2022-07-29T01:30:32;99713.28;;;16.97;64.51
68941;BME280;55982;51.476;7.552;2022-07-29T01:33:02;99711.59;;;16.96;64.39
68941;BME280;55982;51.476;7.552;2022-07-29T01:35:36;99706.69;;;16.90;64.31
68941;BME280;55982;51.476;7.552;2022-07-29T01:38:13;99698.84;;;16.88;64.32
68941;BME280;55982;51.476;7.552;2022-07-29T01:40:52;99703.75;;;16.80;64.85
68941;BME280;55982;51.476;7.552;2022-07-29T01:43:24;99700.06;;;16.83;64.91
68941;BME280;55982;51.476;7.552;2022-07-29T01:46:05;99704.59;;;16.81;64.69
68941;BME280;55982;51.476;7.552;2022-07-29T01:48:42;99694.66;;;16.70;66.10
68941;BME280;55982;51.476;7.552;2022-07-29T01:51:16;99692.97;;;16.69;65.82
68941;BME280;55982;51.476;7.552;2022-07-29T01:54:02;99696.09;;;16.62;66.22
68941;BME280;55982;51.476;7.552;2022-07-29T01:56:31;99699.84;;;16.58;65.83
68941;BME280;55982;51.476;7.552;2022-07-29T01:58:59;99699.09;;;16.56;66.86
68941;BME280;55982;51.476;7.552;2022-07-29T02:01:27;99698.13;;;16.57;67.05
68941;BME280;55982;51.476;7.552;2022-07-29T02:03:56;99682.81;;;16.47;68.54
68941;BME280;55982;51.476;7.552;2022-07-29T02:06:23;99683.34;;;16.38;67.96
68941;BME280;55982;51.476;7.552;2022-07-29T02:08:50;99682.34;;;16.25;70.31
68941;BME280;55982;51.476;7.552;2022-07-29T02:11:18;99689.28;;;16.12;70.10
68941;BME280;55982;51.476;7.552;2022-07-29T02:13:44;99691.13;;;15.96;70.59
68941;BME280;55982;51.476;7.552;2022-07-29T02:16:10;99687.44;;;15.83;72.22
68941;BME280;55982;51.476;7.552;2022-07-29T02:18:39;99692.81;;;15.66;74.03
68941;BME280;55982;51.476;7.552;2022-07-29T02:21:06;99687.81;;;15.62;74.42
68941;BME280;55982;51.476;7.552;2022-07-29T02:23:33;99682.97;;;15.54;74.40
68941;BME280;55982;51.476;7.552;2022-07-29T02:26:00;99676.75;;;15.55;73.31
68941;BME280;55982;51.476;7.552;2022-07-29T02:28:28;99678.53;;;15.70;71.73
68941;BME280;55982;51.476;7.552;2022-07-29T02:30:58;99678.38;;;15.73;71.26
68941;BME280;55982;51.476;7.552;2022-07-29T02:33:25;99672.91;;;15.76;70.95
68941;BME280;55982;51.476;7.552;2022-07-29T02:35:51;99673.59;;;15.80;70.90
68941;BME280;55982;51.476;7.552;2022-07-29T02:38:18;99659.63;;;15.93;69.98
68941;BME280;55982;51.476;7.552;2022-07-29T02:41:05;99671.00;;;16.09;69.12
68941;BME280;55982;51.476;7.552;2022-07-29T02:43:34;99661.47;;;16.07;71.04
68941;BME280;55982;51.476;7.552;2022-07-29T02:46:02;99658.25;;;16.02;70.63
68941;BME280;55982;51.476;7.552;2022-07-29T02:48:38;99670.00;;;15.96;70.88
68941;BME280;55982;51.476;7.552;2022-07-29T02:51:23;99671.69;;;15.97;70.01
68941;BME280;55982;51.476;7.552;2022-07-29T02:53:53;99672.38;;;15.85;71.70
68941;BME280;55982;51.476;7.552;2022-07-29T02:56:25;99670.09;;;15.79;71.37
68941;BME280;55982;51.476;7.552;2022-07-29T02:58:58;99673.44;;;15.83;70.79
68941;BME280;55982;51.476;7.552;2022-07-29T03:01:26;99665.78;;;15.78;70.89
68941;BME280;55982;51.476;7.552;2022-07-29T03:03:55;99664.75;;;15.81;70.80
68941;BME280;55982;51.476;7.552;2022-07-29T03:06:23;99660.16;;;15.84;70.32
68941;BME280;55982;51.476;7.552;2022-07-29T03:08:50;99654.34;;;15.93;69.47
68941;BME280;55982;51.476;7.552;2022-07-29T03:11:16;99654.00;;;15.99;70.56
68941;BME280;55982;51.476;7.552;2022-07-29T03:13:43;99656.81;;;15.96;69.73
68941;BME280;55982;51.476;7.552;2022-07-29T03:16:09;99658.38;;;16.14;68.19
68941;BME280;55982;51.476;7.552;2022-07-29T03:18:35;99652.78;;;16.34;67.05
68941;BME280;55982;51.476;7.552;2022-07-29T03:21:02;99660.16;;;16.43;66.61
68941;BME280;55982;51.476;7.552;2022-07-29T03:23:28;99661.50;;;16.51;66.21
68941;BME280;55982;51.476;7.552;2022-07-29T03:25:55;99659.25;;;16.59;66.03
68941;BME280;55982;51.476;7.552;2022-07-29T03:28:21;99658.25;;;16.61;66.24
68941;BME280;55982;51.476;7.552;2022-07-29T03:30:47;99658.41;;;16.58;67.88
68941;BME280;55982;51.476;7.552;2022-07-29T03:33:13;99661.34;;;16.54;69.34
68941;BME280;55982;51.476;7.552;2022-07-29T03:35:38;99653.56;;;16.36;72.08
68941;BME280;55982;51.476;7.552;2022-07-29T03:38:04;99646.28;;;16.10;72.71
68941;BME280;55982;51.476;7.552;2022-07-29T03:40:37;99640.44;;;16.05;71.60
68941;BME280;55982;51.476;7.552;2022-07-29T03:43:03;99638.16;;;15.99;72.23
68941;BME280;55982;51.476;7.552;2022-07-29T03:45:31;99641.00;;;15.96;71.68
68941;BME280;55982;51.476;7.552;2022-07-29T03:48:01;99640.03;;;15.97;72.82
68941;BME280;55982;51.476;7.552;2022-07-29T03:50:30;99635.09;;;15.91;73.59
68941;BME280;55982;51.476;7.552;2022-07-29T03:52:56;99642.09;;;15.92;71.78
68941;BME280;55982;51.476;7.552;2022-07-29T03:55:22;99637.97;;;16.02;71.59
68941;BME280;55982;51.476;7.552;2022-07-29T03:57:49;99641.38;;;16.04;71.59
68941;BME280;55982;51.476;7.552;2022-07-29T04:00:15;99645.94;;;16.16;71.97
68941;BME280;55982;51.476;7.552;2022-07-29T04:02:41;99653.31;;;16.25;71.49
68941;BME280;55982;51.476;7.552;2022-07-29T04:05:13;99646.75;;;16.32;71.17
68941;BME280;55982;51.476;7.552;2022-07-29T04:07:40;99653.56;;;16.36;70.48
68941;BME280;55982;51.476;7.552;2022-07-29T04:10:06;99639.38;;;16.37;70.63
68941;BME280;55982;51.476;7.552;2022-07-29T04:12:32;99645.22;;;16.28;73.31
68941;BME280;55982;51.476;7.552;2022-07-29T04:14:57;99648.03;;;16.25;72.25
68941;BME280;55982;51.476;7.552;2022-07-29T04:17:23;99646.69;;;16.18;72.96
68941;BME280;55982;51.476;7.552;2022-07-29T04:19:48;99648.78;;;16.27;73.09
68941;BME280;55982;51.476;7.552;2022-07-29T04:22:13;99652.19;;;16.29;72.46
68941;BME280;55982;51.476;7.552;2022-07-29T04:24:39;99651.84;;;16.35;72.18
68941;BME280;55982;51.476;7.552;2022-07-29T04:27:04;99655.22;;;16.37;72.28
68941;BME280;55982;51.476;7.552;2022-07-29T04:29:29;99650.44;;;16.44;71.35
68941;BME280;55982;51.476;7.552;2022-07-29T04:31:55;99647.38;;;16.52;70.23
68941;BME280;55982;51.476;7.552;2022-07-29T04:34:20;99665.50;;;16.58;69.65
68941;BME280;55982;51.476;7.552;2022-07-29T04:36:45;99678.31;;;16.64;69.92
68941;BME280;55982;51.476;7.552;2022-07-29T04:39:11;99687.97;;;16.65;70.30
68941;BME280;55982;51.476;7.552;2022-07-29T04:41:36;99693.69;;;16.57;69.47
68941;BME280;55982;51.476;7.552;2022-07-29T04:44:04;99687.19;;;16.63;70.04
68941;BME280;55982;51.476;7.552;2022-07-29T04:46:30;99697.50;;;16.67;69.56
68941;BME280;55982;51.476;7.552;2022-07-29T04:48:56;99702.50;;;16.72;69.55
68941;BME280;55982;51.476;7.552;2022-07-29T04:51:21;99711.47;;;16.69;69.75
68941;BME280;55982;51.476;7.552;2022-07-29T04:53:47;99714.88;;;16.71;69.37
68941;BME280;55982;51.476;7.552;2022-07-29T04:56:13;99712.53;;;16.81;69.25
68941;BME280;55982;51.476;7.552;2022-07-29T04:58:38;99718.94;;;16.77;68.96
68941;BME280;55982;51.476;7.552;2022-07-29T05:01:03;99726.88;;;16.77;69.49
68941;BME280;55982;51.476;7.552;2022-07-29T05:03:29;99725.91;;;16.78;69.33
68941;BME280;55982;51.476;7.552;2022-07-29T05:05:54;99729.31;;;16.80;70.62
68941;BME280;55982;51.476;7.552;2022-07-29T05:08:20;99728.75;;;16.75;71.59
68941;BME280;55982;51.476;7.552;2022-07-29T05:10:46;99718.75;;;16.80;69.68
68941;BME280;55982;51.476;7.552;2022-07-29T05:13:11;99716.31;;;17.05;67.05
68941;BME280;55982;51.476;7.552;2022-07-29T05:15:37;99733.31;;;17.15;66.96
68941;BME280;55982;51.476;7.552;2022-07-29T05:18:03;99731.03;;;16.95;69.57
68941;BME280;55982;51.476;7.552;2022-07-29T05:20:29;99730.84;;;17.12;66.54
68941;BME280;55982;51.476;7.552;2022-07-29T05:22:56;99732.00;;;17.22;65.34
68941;BME280;55982;51.476;7.552;2022-07-29T05:25:23;99739.53;;;17.28;64.99
68941;BME280;55982;51.476;7.552;2022-07-29T05:27:49;99720.84;;;17.17;64.95
68941;BME280;55982;51.476;7.552;2022-07-29T05:30:15;99721.63;;;17.19;65.15
68941;BME280;55982;51.476;7.552;2022-07-29T05:32:40;99741.81;;;17.20;65.06
68941;BME280;55982;51.476;7.552;2022-07-29T05:35:06;99735.66;;;17.19;66.17
68941;BME280;55982;51.476;7.552;2022-07-29T05:37:32;99717.47;;;17.15;65.97
68941;BME280;55982;51.476;7.552;2022-07-29T05:39:58;99717.84;;;17.23;65.54
68941;BME280;55982;51.476;7.552;2022-07-29T05:42:24;99727.84;;;17.46;63.55
68941;BME280;55982;51.476;7.552;2022-07-29T05:44:50;99742.56;;;17.36;63.97
68941;BME280;55982;51.476;7.552;2022-07-29T05:47:15;99746.34;;;17.46;63.56
68941;BME280;55982;51.476;7.552;2022-07-29T05:49:41;99756.06;;;17.60;63.26
68941;BME280;55982;51.476;7.552;2022-07-29T05:52:06;99749.97;;;17.59;62.86
68941;BME280;55982;51.476;7.552;2022-07-29T05:54:32;99764.31;;;17.55;64.89
68941;BME280;55982;51.476;7.552;2022-07-29T05:56:57;99764.28;;;17.83;63.05
68941;BME280;55982;51.476;7.552;2022-07-29T05:59:22;99757.72;;;17.89;62.86
68941;BME280;55982;51.476;7.552;2022-07-29T06:01:48;99767.75;;;17.98;62.91
68941;BME280;55982;51.476;7.552;2022-07-29T06:04:13;99776.09;;;18.18;61.64
68941;BME280;55982;51.476;7.552;2022-07-29T06:06:39;99780.75;;;18.42;61.29
68941;BME280;55982;51.476;7.552;2022-07-29T06:09:04;99763.19;;;18.80;62.22
68941;BME280;55982;51.476;7.552;2022-07-29T06:11:29;99777.59;;;18.76;59.52
68941;BME280;55982;51.476;7.552;2022-07-29T06:13:55;99774.25;;;19.24;57.63
68941;BME280;55982;51.476;7.552;2022-07-29T06:16:20;99773.19;;;19.14;59.46
68941;BME280;55982;51.476;7.552;2022-07-29T06:18:46;99771.91;;;19.07;58.83
68941;BME280;55982;51.476;7.552;2022-07-29T06:21:11;99769.69;;;18.62;59.22
68941;BME280;55982;51.476;7.552;2022-07-29T06:23:37;99771.19;;;18.66;60.48
68941;BME280;55982;51.476;7.552;2022-07-29T06:26:03;99766.25;;;18.74;61.14
68941;BME280;55982;51.476;7.552;2022-07-29T06:28:29;99772.75;;;18.95;61.89
68941;BME280;55982;51.476;7.552;2022-07-29T06:30:54;99775.91;;;18.75;59.55
68941;BME280;55982;51.476;7.552;2022-07-29T06:33:19;99774.88;;;19.02;59.65
68941;BME280;55982;51.476;7.552;2022-07-29T06:35:45;99775.94;;;19.25;60.61
68941;BME280;55982;51.476;7.552;2022-07-29T06:38:12;99771.88;;;18.82;63.11
68941;BME280;55982;51.476;7.552;2022-07-29T06:40:41;99769.09;;;18.71;61.63
68941;BME280;55982;51.476;7.552;2022-07-29T06:43:34;99769.97;;;18.84;61.93
68941;BME280;55982;51.476;7.552;2022-07-29T06:46:02;99769.44;;;19.04;60.42
68941;BME280;55982;51.476;7.552;2022-07-29T06:48:29;99775.31;;;19.09;57.86
68941;BME280;55982;51.476;7.552;2022-07-29T06:50:54;99773.69;;;19.06;59.14
68941;BME280;55982;51.476;7.552;2022-07-29T06:53:20;99778.75;;;19.36;59.73
68941;BME280;55982;51.476;7.552;2022-07-29T06:55:46;99770.56;;;19.39;57.87
68941;BME280;55982;51.476;7.552;2022-07-29T06:58:11;99771.28;;;19.66;57.81
68941;BME280;55982;51.476;7.552;2022-07-29T07:00:37;99767.63;;;19.80;58.77
68941;BME280;55982;51.476;7.552;2022-07-29T07:03:02;99774.38;;;19.96;61.08
68941;BME280;55982;51.476;7.552;2022-07-29T07:05:28;99767.25;;;19.48;60.58
68941;BME280;55982;51.476;7.552;2022-07-29T07:07:53;99777.22;;;19.45;58.89
68941;BME280;55982;51.476;7.552;2022-07-29T07:10:19;99775.66;;;20.03;59.01
68941;BME280;55982;51.476;7.552;2022-07-29T07:12:44;99788.13;;;20.14;58.04
68941;BME280;55982;51.476;7.552;2022-07-29T07:15:10;99791.91;;;20.59;55.15
68941;BME280;55982;51.476;7.552;2022-07-29T07:17:35;99785.22;;;19.93;55.91
68941;BME280;55982;51.476;7.552;2022-07-29T07:20:03;99781.13;;;20.84;54.44
68941;BME280;55982;51.476;7.552;2022-07-29T07:22:29;99781.72;;;21.11;55.70
68941;BME280;55982;51.476;7.552;2022-07-29T07:24:55;99777.00;;;21.15;53.01
68941;BME280;55982;51.476;7.552;2022-07-29T07:27:20;99777.50;;;21.31;53.68
68941;BME280;55982;51.476;7.552;2022-07-29T07:29:46;99771.84;;;21.46;53.37
68941;BME280;55982;51.476;7.552;2022-07-29T07:32:11;99767.75;;;20.96;54.36
68941;BME280;55982;51.476;7.552;2022-07-29T07:34:38;99765.91;;;20.86;56.83
68941;BME280;55982;51.476;7.552;2022-07-29T07:37:03;99767.38;;;21.47;54.52
68941;BME280;55982;51.476;7.552;2022-07-29T07:39:28;99762.13;;;21.78;52.10
68941;BME280;55982;51.476;7.552;2022-07-29T07:41:54;99769.69;;;21.51;55.86
68941;BME280;55982;51.476;7.552;2022-07-29T07:44:19;99768.22;;;21.47;54.52
68941;BME280;55982;51.476;7.552;2022-07-29T07:46:45;99765.50;;;21.14;53.00
68941;BME280;55982;51.476;7.552;2022-07-29T07:49:10;99764.47;;;21.61;53.46
68941;BME280;55982;51.476;7.552;2022-07-29T07:51:36;99774.38;;;22.03;51.39
68941;BME280;55982;51.476;7.552;2022-07-29T07:54:01;99778.06;;;22.23;52.01
68941;BME280;55982;51.476;7.552;2022-07-29T07:56:27;99771.03;;;22.96;49.70
68941;BME280;55982;51.476;7.552;2022-07-29T07:58:52;99774.13;;;22.49;49.58
68941;BME280;55982;51.476;7.552;2022-07-29T08:01:18;99775.34;;;22.45;50.80
68941;BME280;55982;51.476;7.552;2022-07-29T08:03:46;99774.56;;;22.65;48.17
68941;BME280;55982;51.476;7.552;2022-07-29T08:06:11;99770.47;;;22.50;49.73
68941;BME280;55982;51.476;7.552;2022-07-29T08:08:37;99769.34;;;23.67;46.28
68941;BME280;55982;51.476;7.552;2022-07-29T08:11:02;99763.81;;;22.87;47.43
68941;BME280;55982;51.476;7.552;2022-07-29T08:13:28;99777.13;;;22.66;49.26
68941;BME280;55982;51.476;7.552;2022-07-29T08:15:55;99773.81;;;23.15;50.65
68941;BME280;55982;51.476;7.552;2022-07-29T08:18:36;99778.38;;;23.24;47.19
68941;BME280;55982;51.476;7.552;2022-07-29T08:21:01;99780.47;;;23.41;49.29
68941;BME280;55982;51.476;7.552;2022-07-29T08:23:27;99784.09;;;24.01;46.47
68941;BME280;55982;51.476;7.552;2022-07-29T08:26:00;99778.50;;;24.04;47.39
68941;BME280;55982;51.476;7.552;2022-07-29T08:28:25;99770.72;;;24.88;43.53
68941;BME280;55982;51.476;7.552;2022-07-29T08:30:51;99765.25;;;25.36;41.30
68941;BME280;55982;51.476;7.552;2022-07-29T08:33:16;99785.22;;;25.14;42.24
68941;BME280;55982;51.476;7.552;2022-07-29T08:35:43;99784.03;;;25.26;41.12
68941;BME280;55982;51.476;7.552;2022-07-29T08:38:08;99773.00;;;24.83;42.84
68941;BME280;55982;51.476;7.552;2022-07-29T08:40:34;99781.50;;;25.81;40.27
68941;BME280;55982;51.476;7.552;2022-07-29T08:43:07;99777.09;;;25.89;40.67
68941;BME280;55982;51.476;7.552;2022-07-29T08:45:47;99773.91;;;25.40;41.81
68941;BME280;55982;51.476;7.552;2022-07-29T08:48:14;99770.31;;;26.22;40.14
68941;BME280;55982;51.476;7.552;2022-07-29T08:50:41;99767.56;;;26.49;39.37
68941;BME280;55982;51.476;7.552;2022-07-29T08:53:17;99772.31;;;26.90;38.68
68941;BME280;55982;51.476;7.552;2022-07-29T08:55:44;99765.81;;;26.13;40.60
68941;BME280;55982;51.476;7.552;2022-07-29T08:58:10;99764.50;;;25.90;40.67
68941;BME280;55982;51.476;7.552;2022-07-29T09:00:41;99762.13;;;26.59;39.91
68941;BME280;55982;51.476;7.552;2022-07-29T09:03:08;99767.00;;;27.42;40.75
68941;BME280;55982;51.476;7.552;2022-07-29T09:05:34;99770.53;;;28.59;36.88
68941;BME280;55982;51.476;7.552;2022-07-29T09:08:00;99765.88;;;27.86;39.40
68941;BME280;55982;51.476;7.552;2022-07-29T09:10:26;99754.97;;;27.02;40.18
68941;BME280;55982;51.476;7.552;2022-07-29T09:12:51;99758.84;;;27.85;40.12
68941;BME280;55982;51.476;7.552;2022-07-29T09:15:17;99753.78;;;27.82;37.27
68941;BME280;55982;51.476;7.552;2022-07-29T09:17:48;99758.53;;;27.11;40.47
68941;BME280;55982;51.476;7.552;2022-07-29T09:20:20;99753.34;;;27.09;38.47
68941;BME280;55982;51.476;7.552;2022-07-29T09:22:46;99754.44;;;27.25;38.91
68941;BME280;55982;51.476;7.552;2022-07-29T09:25:15;99750.59;;;27.45;37.87
68941;BME280;55982;51.476;7.552;2022-07-29T09:28:05;99758.66;;;26.31;39.58
68941;BME280;55982;51.476;7.552;2022-07-29T09:30:31;99758.69;;;26.66;40.94
68941;BME280;55982;51.476;7.552;2022-07-29T09:33:01;99750.84;;;26.90;39.34
68941;BME280;55982;51.476;7.552;2022-07-29T09:35:28;99762.41;;;26.38;39.23
68941;BME280;55982;51.476;7.552;2022-07-29T09:37:54;99766.22;;;25.91;40.48
68941;BME280;55982;51.476;7.552;2022-07-29T09:40:21;99754.22;;;25.58;41.47
68941;BME280;55982;51.476;7.552;2022-07-29T09:42:49;99767.88;;;25.92;41.11
68941;BME280;55982;51.476;7.552;2022-07-29T09:47:51;99761.22;;;25.69;41.96
68941;BME280;55982;51.476;7.552;2022-07-29T09:50:17;99759.38;;;26.06;38.90
68941;BME280;55982;51.476;7.552;2022-07-29T09:52:50;99760.59;;;27.60;36.27
68941;BME280;55982;51.476;7.552;2022-07-29T09:55:16;99759.56;;;27.36;38.18
68941;BME280;55982;51.476;7.552;2022-07-29T09:57:43;99762.66;;;26.62;42.28
68941;BME280;55982;51.476;7.552;2022-07-29T10:00:12;99759.69;;;27.52;37.22
68941;BME280;55982;51.476;7.552;2022-07-29T10:02:39;99756.84;;;26.49;39.64
68941;BME280;55982;51.476;7.552;2022-07-29T10:05:16;99762.16;;;26.14;41.79
68941;BME280;55982;51.476;7.552;2022-07-29T10:08:02;99755.88;;;26.23;42.50
68941;BME280;55982;51.476;7.552;2022-07-29T10:10:30;99755.66;;;25.53;45.24
68941;BME280;55982;51.476;7.552;2022-07-29T10:12:58;99753.81;;;24.97;47.41
68941;BME280;55982;51.476;7.552;2022-07-29T10:15:25;99763.59;;;25.35;45.31
68941;BME280;55982;51.476;7.552;2022-07-29T10:17:58;99755.50;;;24.89;46.51
68941;BME280;55982;51.476;7.552;2022-07-29T10:20:25;99757.59;;;24.28;48.39
68941;BME280;55982;51.476;7.552;2022-07-29T10:22:52;99760.13;;;23.80;49.61
68941;BME280;55982;51.476;7.552;2022-07-29T10:25:18;99760.75;;;23.12;51.37
68941;BME280;55982;51.476;7.552;2022-07-29T10:27:45;99757.03;;;23.24;51.66
68941;BME280;55982;51.476;7.552;2022-07-29T10:30:12;99763.41;;;23.12;51.74
68941;BME280;55982;51.476;7.552;2022-07-29T10:44:18;99758.50;;;22.44;54.45
68941;BME280;55982;51.476;7.552;2022-07-29T10:46:44;99753.91;;;22.78;52.88
68941;BME280;55982;51.476;7.552;2022-07-29T10:49:22;99754.31;;;22.31;54.40
68941;BME280;55982;51.476;7.552;2022-07-29T10:54:15;99759.44;;;22.12;58.04
68941;BME280;55982;51.476;7.552;2022-07-29T10:56:41;99758.75;;;21.99;57.64
68941;BME280;55982;51.476;7.552;2022-07-29T11:01:52;99762.28;;;21.99;58.19
68941;BME280;55982;51.476;7.552;2022-07-29T11:07:15;99765.59;;;22.23;58.47
68941;BME280;55982;51.476;7.552;2022-07-29T11:09:41;99763.34;;;22.19;59.16
68941;BME280;55982;51.476;7.552;2022-07-29T11:15:04;99768.53;;;22.52;57.37
68941;BME280;55982;51.476;7.552;2022-07-29T11:18:10;99767.78;;;22.29;58.80
68941;BME280;55982;51.476;7.552;2022-07-29T11:20:45;99779.59;;;22.58;58.78
68941;BME280;55982;51.476;7.552;2022-07-29T11:26:24;99767.97;;;22.80;57.01
68941;BME280;55982;51.476;7.552;2022-07-29T11:29:08;99763.31;;;22.61;58.31
68941;BME280;55982;51.476;7.552;2022-07-29T11:31:42;99766.03;;;23.53;54.32
68941;BME280;55982;51.476;7.552;2022-07-29T11:34:24;99768.56;;;23.45;53.52
68941;BME280;55982;51.476;7.552;2022-07-29T11:45:06;99772.66;;;25.15;49.50
68941;BME280;55982;51.476;7.552;2022-07-29T11:50:16;99761.06;;;26.07;46.44
68941;BME280;55982;51.476;7.552;2022-07-29T11:52:46;99771.94;;;25.69;47.42
68941;BME280;55982;51.476;7.552;2022-07-29T11:55:17;99765.22;;;26.19;45.73
68941;BME280;55982;51.476;7.552;2022-07-29T11:57:54;99764.16;;;26.12;45.89
68941;BME280;55982;51.476;7.552;2022-07-29T12:00:32;99754.38;;;24.91;49.41
68941;BME280;55982;51.476;7.552;2022-07-29T12:03:00;99760.69;;;25.09;48.33
68941;BME280;55982;51.476;7.552;2022-07-29T12:05:34;99762.44;;;25.57;47.04
68941;BME280;55982;51.476;7.552;2022-07-29T12:08:07;99752.97;;;24.59;49.15
68941;BME280;55982;51.476;7.552;2022-07-29T12:10:33;99759.84;;;24.61;51.47
68941;BME280;55982;51.476;7.552;2022-07-29T12:12:58;99762.97;;;23.58;52.34
68941;BME280;55982;51.476;7.552;2022-07-29T12:15:23;99756.72;;;23.69;54.31
68941;BME280;55982;51.476;7.552;2022-07-29T12:17:50;99761.91;;;23.40;55.67
68941;BME280;55982;51.476;7.552;2022-07-29T12:20:26;99753.91;;;22.78;54.99
68941;BME280;55982;51.476;7.552;2022-07-29T12:22:52;99750.00;;;22.19;56.27
68941;BME280;55982;51.476;7.552;2022-07-29T12:25:20;99750.00;;;22.19;56.30
68941;BME280;55982;51.476;7.552;2022-07-29T12:27:46;99753.78;;;22.59;56.67
68941;BME280;55982;51.476;7.552;2022-07-29T12:30:14;99761.59;;;23.33;55.30
68941;BME280;55982;51.476;7.552;2022-07-29T12:32:46;99760.63;;;23.65;52.98
68941;BME280;55982;51.476;7.552;2022-07-29T12:35:16;99766.13;;;23.42;53.36
68941;BME280;55982;51.476;7.552;2022-07-29T12:37:45;99761.97;;;23.08;53.79
68941;BME280;55982;51.476;7.552;2022-07-29T12:40:14;99761.34;;;22.95;53.97
68941;BME280;55982;51.476;7.552;2022-07-29T12:42:41;99756.09;;;22.73;57.12
68941;BME280;55982;51.476;7.552;2022-07-29T12:45:07;99755.22;;;23.04;54.80
68941;BME280;55982;51.476;7.552;2022-07-29T12:47:33;99752.16;;;22.25;56.35
68941;BME280;55982;51.476;7.552;2022-07-29T12:50:15;99749.16;;;22.50;55.61
68941;BME280;55982;51.476;7.552;2022-07-29T12:52:43;99752.94;;;22.36;56.83
68941;BME280;55982;51.476;7.552;2022-07-29T12:55:09;99752.94;;;23.20;53.58
68941;BME280;55982;51.476;7.552;2022-07-29T12:57:49;99756.75;;;23.27;53.24
68941;BME280;55982;51.476;7.552;2022-07-29T13:00:22;99756.31;;;23.02;55.78
68941;BME280;55982;51.476;7.552;2022-07-29T13:02:58;99759.28;;;23.29;53.78
68941;BME280;55982;51.476;7.552;2022-07-29T13:05:24;99758.56;;;23.78;52.15
68941;BME280;55982;51.476;7.552;2022-07-29T13:07:50;99758.97;;;23.73;53.58
68941;BME280;55982;51.476;7.552;2022-07-29T13:10:20;99762.38;;;23.24;52.86
68941;BME280;55982;51.476;7.552;2022-07-29T13:13:07;99760.00;;;22.69;55.30
68941;BME280;55982;51.476;7.552;2022-07-29T13:15:35;99753.50;;;22.62;55.08
68941;BME280;55982;51.476;7.552;2022-07-29T13:18:01;99756.56;;;22.04;57.83
68941;BME280;55982;51.476;7.552;2022-07-29T13:20:28;99766.25;;;22.05;57.71
68941;BME280;55982;51.476;7.552;2022-07-29T13:22:58;99759.50;;;21.90;57.29
68941;BME280;55982;51.476;7.552;2022-07-29T13:25:29;99764.94;;;21.99;58.00
68941;BME280;55982;51.476;7.552;2022-07-29T13:27:56;99762.66;;;21.72;58.89
68941;BME280;55982;51.476;7.552;2022-07-29T13:30:22;99766.03;;;21.41;61.73
68941;BME280;55982;51.476;7.552;2022-07-29T13:32:48;99773.41;;;21.38;63.18
68941;BME280;55982;51.476;7.552;2022-07-29T13:35:13;99769.13;;;21.13;66.96
68941;BME280;55982;51.476;7.552;2022-07-29T13:37:39;99776.44;;;21.44;66.46
68941;BME280;55982;51.476;7.552;2022-07-29T13:40:06;99773.78;;;21.89;61.57
68941;BME280;55982;51.476;7.552;2022-07-29T13:42:32;99767.50;;;22.96;58.53
68941;BME280;55982;51.476;7.552;2022-07-29T13:44:58;99761.53;;;24.43;54.66
68941;BME280;55982;51.476;7.552;2022-07-29T13:47:24;99750.16;;;24.79;51.18
68941;BME280;55982;51.476;7.552;2022-07-29T13:49:49;99760.31;;;26.32;49.48